Time;durP1;ratioP1;P1;durP2;ratioP2;P2;SDS_P1;SDS_P2;PMS_P1;PMS_P2;Temp;Humidity;BMP_temperature;BMP_pressure;BME280_temperature;BME280_humidity;BME280_pressure;Samples;Min_cycle;Max_cycle;Signal;HPM_P1;HPM_P2
2022/04/10 00:00:55;;;;;;;9.90;2.05;;;3.80;99.90;;;;;;5015523;28;20041;-71
2022/04/10 00:03:22;;;;;;;11.57;2.10;;;3.70;99.90;;;;;;5013044;28;20124;-71
2022/04/10 00:05:48;;;;;;;11.00;2.15;;;3.70;99.90;;;;;;5015364;28;20409;-71
2022/04/10 00:08:14;;;;;;;13.43;2.85;;;3.60;99.90;;;;;;5015711;28;20417;-71
2022/04/10 00:10:40;;;;;;;9.68;2.30;;;3.60;99.90;;;;;;4998683;28;20115;-71
2022/04/10 00:13:05;;;;;;;13.35;2.97;;;3.60;99.90;;;;;;5014954;28;20042;-71
2022/04/10 00:15:31;;;;;;;9.70;2.20;;;3.50;99.90;;;;;;5016096;28;20448;-71
2022/04/10 00:17:56;;;;;;;9.32;2.00;;;3.50;99.90;;;;;;5000240;28;20092;-71
2022/04/10 00:20:22;;;;;;;12.10;2.03;;;3.50;99.90;;;;;;5014498;28;20071;-71
2022/04/10 00:22:48;;;;;;;10.32;2.03;;;3.40;99.90;;;;;;5015918;28;20061;-71
2022/04/10 00:25:19;;;;;;;11.88;2.00;;;3.40;99.90;;;;;;4998883;28;20041;-71
2022/04/10 00:27:44;;;;;;;13.82;2.58;;;3.40;99.90;;;;;;5012453;28;20045;-72
2022/04/10 00:30:12;;;;;;;14.50;2.83;;;3.30;99.90;;;;;;5015441;28;20429;-71
2022/04/10 00:32:38;;;;;;;15.23;2.40;;;3.30;99.90;;;;;;5014242;28;20543;-71
2022/04/10 00:35:05;;;;;;;13.80;2.35;;;3.30;99.90;;;;;;5015423;28;20116;-71
2022/04/10 00:37:32;;;;;;;10.45;1.90;;;3.20;99.90;;;;;;5012610;28;20461;-72
2022/04/10 00:39:57;;;;;;;14.98;2.63;;;3.20;99.90;;;;;;5015748;28;20154;-71
2022/04/10 00:42:33;;;;;;;9.88;2.78;;;3.20;99.90;;;;;;5013673;28;20065;-71
2022/04/10 00:44:59;;;;;;;13.23;2.33;;;3.30;99.90;;;;;;5014618;28;20042;-71
2022/04/10 00:47:25;;;;;;;13.27;2.33;;;3.30;99.90;;;;;;5014366;28;20175;-71
2022/04/10 00:49:51;;;;;;;11.20;2.08;;;3.20;99.90;;;;;;5015715;28;20071;-71
2022/04/10 00:52:18;;;;;;;11.25;2.33;;;3.30;99.90;;;;;;5013991;28;20124;-71
2022/04/10 00:54:44;;;;;;;14.02;2.85;;;3.30;99.90;;;;;;5015142;28;20401;-71
2022/04/10 00:57:10;;;;;;;11.95;2.42;;;3.30;99.90;;;;;;4998754;28;20037;-71
2022/04/10 00:59:36;;;;;;;10.27;2.47;;;3.30;99.90;;;;;;5014836;28;20047;-72
2022/04/10 01:02:03;;;;;;;11.43;2.20;;;3.30;99.90;;;;;;5015217;28;20041;-71
2022/04/10 01:04:28;;;;;;;12.80;2.67;;;3.30;99.90;;;;;;5012699;28;20405;-72
2022/04/10 01:06:56;;;;;;;15.27;2.70;;;3.30;99.90;;;;;;5015616;28;20033;-71
2022/04/10 01:09:24;;;;;;;15.88;2.30;;;3.20;99.90;;;;;;4998239;28;20503;-71
2022/04/10 01:11:52;;;;;;;14.20;2.30;;;3.30;99.90;;;;;;5015357;28;20037;-72
2022/04/10 01:14:18;;;;;;;15.27;2.30;;;3.20;99.90;;;;;;5013769;28;20041;-71
2022/04/10 01:16:44;;;;;;;12.65;2.65;;;3.30;99.90;;;;;;5015531;28;20090;-71
2022/04/10 01:19:11;;;;;;;9.68;1.95;;;3.20;99.90;;;;;;5013821;28;20045;-71
2022/04/10 01:21:44;;;;;;;12.20;2.35;;;3.20;99.90;;;;;;5015329;28;20099;-71
2022/04/10 01:24:13;;;;;;;9.15;2.35;;;3.20;99.90;;;;;;5010255;28;20050;-71
2022/04/10 01:26:40;;;;;;;16.65;2.50;;;3.30;99.90;;;;;;5012335;28;20398;-71
2022/04/10 01:29:08;;;;;;;10.77;2.38;;;3.20;99.90;;;;;;5012576;28;20061;-71
2022/04/10 01:31:36;;;;;;;9.60;2.35;;;3.20;99.90;;;;;;4995888;28;20065;-71
2022/04/10 01:34:07;;;;;;;10.88;2.13;;;3.20;99.90;;;;;;5009707;28;20501;-71
2022/04/10 01:36:34;;;;;;;13.23;2.22;;;3.30;99.90;;;;;;4995913;28;20045;-71
2022/04/10 01:39:02;;;;;;;9.48;2.13;;;3.30;99.90;;;;;;5010547;28;20406;-71
2022/04/10 01:41:30;;;;;;;9.43;2.10;;;3.30;99.90;;;;;;5011898;28;20053;-71
2022/04/10 01:43:56;;;;;;;11.43;2.00;;;3.20;99.90;;;;;;5010852;28;20128;-71
2022/04/10 01:46:26;;;;;;;11.05;1.90;;;3.20;99.90;;;;;;5011896;28;20048;-71
2022/04/10 01:48:52;;;;;;;9.43;2.10;;;3.20;99.90;;;;;;5010904;28;20490;-71
2022/04/10 01:51:17;;;;;;;10.23;1.60;;;3.10;99.90;;;;;;5010099;28;20038;-71
2022/04/10 01:53:43;;;;;;;13.57;2.33;;;3.10;99.90;;;;;;5010205;28;20056;-72
2022/04/10 01:56:10;;;;;;;11.60;2.25;;;3.10;99.90;;;;;;5012081;28;20034;-71
2022/04/10 01:58:38;;;;;;;11.75;2.22;;;3.10;99.90;;;;;;4994661;28;20042;-71
2022/04/10 02:01:05;;;;;;;7.68;2.13;;;3.10;99.90;;;;;;5010011;28;20117;-71
2022/04/10 02:03:32;;;;;;;12.50;2.33;;;3.20;99.90;;;;;;5010164;28;20050;-71
2022/04/10 02:05:58;;;;;;;18.95;2.70;;;3.30;99.90;;;;;;5011760;28;20172;-72
2022/04/10 02:08:24;;;;;;;12.63;2.35;;;3.20;99.90;;;;;;5010076;28;20505;-71
2022/04/10 02:10:50;;;;;;;11.10;2.53;;;3.20;99.90;;;;;;5011646;28;20045;-71
2022/04/10 02:13:16;;;;;;;10.52;1.80;;;3.10;99.90;;;;;;5010290;28;20125;-71
2022/04/10 02:15:41;;;;;;;11.90;2.20;;;3.00;99.90;;;;;;5012778;28;20129;-72
2022/04/10 02:18:07;;;;;;;12.35;2.17;;;2.90;99.90;;;;;;4998846;28;20450;-71
2022/04/10 02:20:33;;;;;;;7.28;1.65;;;2.90;99.90;;;;;;4997912;28;20457;-71
2022/04/10 02:22:59;;;;;;;12.48;3.20;;;3.10;99.90;;;;;;5014893;28;20054;-71
2022/04/10 02:25:25;;;;;;;13.13;2.08;;;3.00;99.90;;;;;;5014522;28;20041;-71
2022/04/10 02:27:51;;;;;;;10.95;2.22;;;3.00;99.90;;;;;;5012686;28;20790;-71
2022/04/10 02:30:18;;;;;;;8.63;2.17;;;3.00;99.90;;;;;;5013324;28;20038;-71
2022/04/10 02:32:44;;;;;;;10.77;2.03;;;3.00;99.90;;;;;;5014222;28;20050;-71
2022/04/10 02:35:10;;;;;;;10.60;2.25;;;3.00;99.90;;;;;;5010731;28;20042;-71
2022/04/10 02:37:36;;;;;;;9.75;2.13;;;2.90;99.90;;;;;;4995455;28;20053;-71
2022/04/10 02:40:04;;;;;;;10.98;2.63;;;2.90;99.90;;;;;;5007967;28;20037;-71
2022/04/10 02:42:33;;;;;;;12.30;2.10;;;2.80;99.90;;;;;;4998286;28;20046;-71
2022/04/10 02:44:59;;;;;;;9.50;1.73;;;2.80;99.90;;;;;;4997588;28;20038;-71
2022/04/10 02:47:24;;;;;;;9.07;2.28;;;2.80;99.90;;;;;;5013503;28;20040;-71
2022/04/10 02:49:50;;;;;;;9.82;2.10;;;2.80;99.90;;;;;;5013728;28;20056;-71
2022/04/10 02:52:15;;;;;;;8.93;1.70;;;2.80;99.90;;;;;;5014489;28;20038;-71
2022/04/10 02:54:41;;;;;;;14.30;2.53;;;2.80;99.90;;;;;;5012978;28;20038;-71
2022/04/10 02:57:06;;;;;;;9.77;1.88;;;2.80;99.90;;;;;;4998149;28;20386;-71
2022/04/10 02:59:32;;;;;;;14.65;2.53;;;2.80;99.90;;;;;;5012787;28;20036;-71
2022/04/10 03:01:58;;;;;;;13.10;2.55;;;2.80;99.90;;;;;;5014317;28;20053;-71
2022/04/10 03:04:23;;;;;;;13.98;2.30;;;2.90;99.90;;;;;;5013382;28;20088;-71
2022/04/10 03:06:49;;;;;;;14.55;2.35;;;2.80;99.90;;;;;;4997966;28;20038;-71
2022/04/10 03:09:14;;;;;;;13.20;1.70;;;2.90;99.90;;;;;;5012723;28;20034;-71
2022/04/10 03:11:40;;;;;;;10.73;2.05;;;2.90;99.90;;;;;;5014103;28;20049;-71
2022/04/10 03:14:06;;;;;;;10.82;2.00;;;2.90;99.90;;;;;;4997357;28;20037;-71
2022/04/10 03:16:31;;;;;;;13.00;1.95;;;2.90;99.90;;;;;;5013923;28;20049;-71
2022/04/10 03:18:57;;;;;;;10.77;1.90;;;3.00;99.90;;;;;;5013119;28;20099;-71
2022/04/10 03:21:22;;;;;;;7.03;1.70;;;3.00;99.90;;;;;;5012764;28;20044;-71
2022/04/10 03:23:48;;;;;;;9.88;1.85;;;3.10;99.90;;;;;;5004238;28;20046;-71
2022/04/10 03:26:13;;;;;;;9.02;1.92;;;3.10;99.90;;;;;;4999670;28;20038;-71
2022/04/10 03:28:39;;;;;;;9.70;2.33;;;3.20;99.90;;;;;;5008240;28;20038;-71
2022/04/10 03:31:04;;;;;;;9.20;1.95;;;3.10;99.90;;;;;;4997427;28;20513;-71
2022/04/10 03:33:30;;;;;;;13.25;2.83;;;3.20;99.90;;;;;;4997337;28;20441;-71
2022/04/10 03:35:56;;;;;;;11.15;1.80;;;3.20;99.90;;;;;;4978221;28;20128;-71
2022/04/10 03:38:22;;;;;;;10.77;2.08;;;3.20;99.90;;;;;;4994346;28;20124;-71
2022/04/10 03:40:48;;;;;;;7.50;1.60;;;3.20;99.90;;;;;;4977940;28;20076;-71
2022/04/10 03:43:13;;;;;;;7.82;1.73;;;3.20;99.90;;;;;;4993887;28;20047;-71
2022/04/10 03:45:39;;;;;;;11.05;1.70;;;3.30;99.90;;;;;;4993930;28;20049;-71
2022/04/10 03:48:06;;;;;;;9.18;1.60;;;3.30;99.90;;;;;;4997464;28;20396;-71
2022/04/10 03:50:33;;;;;;;12.07;1.75;;;3.30;99.90;;;;;;4997210;28;20044;-71
2022/04/10 03:53:00;;;;;;;9.00;1.45;;;3.30;99.90;;;;;;4997080;28;20038;-71
2022/04/10 03:55:26;;;;;;;7.20;1.55;;;3.40;99.90;;;;;;4997355;28;20053;-71
2022/04/10 03:57:51;;;;;;;6.25;1.40;;;3.40;99.90;;;;;;5013385;28;20038;-71
2022/04/10 04:00:18;;;;;;;11.60;2.55;;;3.40;99.90;;;;;;4997153;28;20077;-71
2022/04/10 04:02:44;;;;;;;9.98;1.60;;;3.40;99.90;;;;;;5013126;28;20057;-71
2022/04/10 04:05:10;;;;;;;7.35;1.65;;;3.50;99.90;;;;;;5013577;28;20394;-71
2022/04/10 04:07:36;;;;;;;11.32;1.73;;;3.40;99.90;;;;;;4996811;28;20050;-71
2022/04/10 04:10:03;;;;;;;7.70;1.60;;;3.40;99.90;;;;;;4996803;28;20076;-71
2022/04/10 04:12:29;;;;;;;7.60;1.40;;;3.40;99.90;;;;;;5013324;28;20042;-71
2022/04/10 04:14:54;;;;;;;7.40;1.30;;;3.50;99.90;;;;;;5013015;28;20124;-71
2022/04/10 04:17:20;;;;;;;7.97;1.27;;;3.40;99.90;;;;;;5013220;28;20050;-71
2022/04/10 04:19:49;;;;;;;6.82;1.30;;;3.40;99.90;;;;;;5012989;28;20030;-72
2022/04/10 04:22:18;;;;;;;5.80;1.15;;;3.60;99.90;;;;;;4995914;28;20042;-72
2022/04/10 04:24:44;;;;;;;5.97;1.20;;;3.60;99.90;;;;;;4976973;28;20069;-72
2022/04/10 04:27:10;;;;;;;6.68;1.30;;;3.40;99.90;;;;;;4977303;28;20077;-72
2022/04/10 04:29:35;;;;;;;9.65;2.17;;;3.30;99.90;;;;;;4993412;28;20073;-71
2022/04/10 04:32:01;;;;;;;5.15;1.30;;;3.30;99.90;;;;;;4993071;28;20076;-71
2022/04/10 04:34:27;;;;;;;4.13;0.80;;;3.10;99.90;;;;;;4993154;28;20042;-71
2022/04/10 04:36:53;;;;;;;5.28;0.80;;;3.40;99.90;;;;;;4993068;28;20570;-71
2022/04/10 04:39:18;;;;;;;3.38;0.90;;;3.50;99.90;;;;;;4993197;28;20042;-72
2022/04/10 04:41:44;;;;;;;5.10;1.23;;;3.40;99.90;;;;;;4992980;28;20157;-71
2022/04/10 04:44:10;;;;;;;5.45;0.98;;;3.20;99.90;;;;;;4992744;28;20133;-71
2022/04/10 04:46:35;;;;;;;5.75;1.50;;;3.10;99.90;;;;;;4992915;28;20046;-71
2022/04/10 04:49:01;;;;;;;8.85;1.15;;;3.10;99.90;;;;;;4976753;28;20045;-71
2022/04/10 04:51:27;;;;;;;4.55;1.00;;;3.00;99.90;;;;;;4992896;28;20042;-71
2022/04/10 04:53:53;;;;;;;4.70;0.95;;;3.10;99.90;;;;;;4992772;28;20056;-71
2022/04/10 04:56:19;;;;;;;4.15;1.30;;;3.10;99.90;;;;;;4992867;28;20409;-72
2022/04/10 04:58:44;;;;;;;8.55;1.48;;;3.10;99.90;;;;;;4976614;28;20046;-71
2022/04/10 05:01:10;;;;;;;4.30;0.90;;;3.10;99.90;;;;;;4992644;28;20050;-71
2022/04/10 05:03:36;;;;;;;6.80;1.15;;;3.10;99.90;;;;;;4992567;28;20124;-71
2022/04/10 05:06:01;;;;;;;6.93;1.40;;;3.00;99.90;;;;;;4976516;28;20042;-71
2022/04/10 05:08:27;;;;;;;4.05;0.90;;;3.10;99.90;;;;;;4992900;28;20435;-71
2022/04/10 05:10:53;;;;;;;4.82;1.20;;;3.10;99.90;;;;;;4992716;28;20042;-71
2022/04/10 05:13:18;;;;;;;3.00;0.93;;;3.00;99.90;;;;;;4992506;28;20043;-71
2022/04/10 05:15:44;;;;;;;6.93;1.10;;;3.00;99.90;;;;;;4976420;28;20034;-72
2022/04/10 05:18:09;;;;;;;6.60;1.00;;;3.00;99.90;;;;;;4976457;28;20057;-72
2022/04/10 05:20:37;;;;;;;4.53;1.05;;;3.00;99.90;;;;;;4992807;28;20038;-72
2022/04/10 05:23:02;;;;;;;4.97;1.08;;;3.00;99.90;;;;;;4999316;28;20054;-71
2022/04/10 05:25:28;;;;;;;5.80;1.30;;;3.00;99.90;;;;;;5012374;28;20564;-72
2022/04/10 05:27:53;;;;;;;5.20;1.80;;;3.00;99.90;;;;;;4995739;28;20038;-72
2022/04/10 05:30:19;;;;;;;4.22;1.00;;;3.10;99.90;;;;;;5012025;28;20402;-72
2022/04/10 05:32:45;;;;;;;9.40;1.30;;;3.10;99.90;;;;;;5012182;28;20486;-72
2022/04/10 05:35:11;;;;;;;7.07;2.20;;;3.20;99.90;;;;;;5012269;28;20041;-72
2022/04/10 05:37:37;;;;;;;5.70;1.20;;;3.40;99.90;;;;;;5045384;28;20041;-72
2022/04/10 05:40:03;;;;;;;6.00;1.23;;;3.40;99.90;;;;;;4995971;28;20048;-72
2022/04/10 05:42:29;;;;;;;5.28;1.13;;;3.40;99.90;;;;;;5011846;28;20124;-72
2022/04/10 05:45:02;;;;;;;8.50;1.35;;;3.20;99.90;;;;;;5011731;28;20077;-70
2022/04/10 05:47:45;;;;;;;7.70;1.20;;;3.20;99.90;;;;;;4991930;28;20042;-70
2022/04/10 05:50:12;;;;;;;7.50;1.65;;;3.20;99.90;;;;;;4977225;28;20450;-70
2022/04/10 05:52:46;;;;;;;4.95;0.98;;;3.20;99.90;;;;;;4995821;28;20499;-70
2022/04/10 05:55:15;;;;;;;9.88;1.40;;;3.30;99.90;;;;;;4981959;28;20502;-70
2022/04/10 05:57:41;;;;;;;3.83;0.95;;;3.30;99.90;;;;;;4998643;28;20497;-73
2022/04/10 06:00:10;;;;;;;7.32;1.58;;;3.40;99.90;;;;;;5015353;28;20048;-71
2022/04/10 06:02:36;;;;;;;8.32;1.63;;;3.50;99.90;;;;;;4997659;28;20088;-70
2022/04/10 06:05:02;;;;;;;5.15;1.30;;;3.50;99.90;;;;;;5010607;28;20045;-70
2022/04/10 06:07:28;;;;;;;8.30;1.30;;;3.60;99.90;;;;;;5015623;28;20039;-70
2022/04/10 06:09:53;;;;;;;5.68;1.30;;;3.60;99.90;;;;;;4998441;28;20089;-70
2022/04/10 06:12:19;;;;;;;8.88;1.52;;;3.70;99.90;;;;;;5016086;28;20042;-71
2022/04/10 06:14:45;;;;;;;6.55;1.40;;;3.80;99.90;;;;;;5014683;28;20041;-70
2022/04/10 06:17:10;;;;;;;4.65;1.33;;;3.90;99.90;;;;;;5015430;28;20100;-70
2022/04/10 06:19:36;;;;;;;8.30;1.55;;;3.90;99.90;;;;;;5014708;28;20037;-70
2022/04/10 06:22:01;;;;;;;5.60;1.15;;;4.00;99.90;;;;;;5015672;28;20030;-70
2022/04/10 06:24:27;;;;;;;8.43;1.42;;;3.90;99.90;;;;;;5013726;28;20107;-70
2022/04/10 06:26:53;;;;;;;7.75;1.42;;;4.00;99.90;;;;;;4998438;28;20054;-70
2022/04/10 06:29:19;;;;;;;6.78;1.77;;;3.90;99.90;;;;;;5010748;28;20088;-70
2022/04/10 06:31:46;;;;;;;10.13;1.80;;;3.90;99.90;;;;;;4995543;28;20038;-70
2022/04/10 06:34:11;;;;;;;8.48;1.63;;;3.90;99.90;;;;;;4994663;28;20096;-70
2022/04/10 06:36:38;;;;;;;6.40;1.50;;;4.00;99.90;;;;;;4978625;28;20042;-70
2022/04/10 06:39:04;;;;;;;9.23;2.03;;;4.10;99.90;;;;;;5014266;28;20041;-70
2022/04/10 06:41:29;;;;;;;4.97;1.23;;;4.10;99.90;;;;;;4997915;28;20042;-70
2022/04/10 06:43:55;;;;;;;9.18;1.70;;;4.20;99.90;;;;;;5014582;28;20048;-70
2022/04/10 06:46:21;;;;;;;6.10;1.40;;;4.20;99.90;;;;;;4996826;28;20152;-70
2022/04/10 06:48:47;;;;;;;6.47;1.73;;;4.30;99.90;;;;;;4994132;28;20038;-71
2022/04/10 06:51:13;;;;;;;4.40;1.50;;;4.40;99.90;;;;;;4978748;28;20041;-72
2022/04/10 06:53:38;;;;;;;8.07;2.10;;;4.50;99.90;;;;;;4995212;28;20042;-71
2022/04/10 06:56:04;;;;;;;7.82;1.45;;;4.50;99.90;;;;;;4979065;28;20042;-71
2022/04/10 06:58:29;;;;;;;4.80;1.38;;;4.40;99.90;;;;;;4996203;28;20117;-71
2022/04/10 07:00:55;;;;;;;6.40;1.40;;;4.40;99.90;;;;;;4993983;28;20395;-71
2022/04/10 07:03:20;;;;;;;6.28;1.50;;;4.40;99.90;;;;;;4994439;28;20082;-71
2022/04/10 07:05:48;;;;;;;6.80;1.13;;;4.30;99.90;;;;;;4995922;28;20115;-71
2022/04/10 07:08:15;;;;;;;4.40;1.50;;;4.30;99.90;;;;;;4994972;28;20038;-71
2022/04/10 07:10:41;;;;;;;5.20;1.05;;;4.30;99.90;;;;;;4994759;28;20054;-71
2022/04/10 07:13:06;;;;;;;5.47;1.30;;;4.30;99.90;;;;;;4994895;28;20050;-70
2022/04/10 07:15:32;;;;;;;3.42;1.25;;;4.30;99.90;;;;;;4994771;28;20128;-71
2022/04/10 07:17:58;;;;;;;5.40;1.13;;;4.30;99.90;;;;;;4978361;28;20074;-71
2022/04/10 07:20:25;;;;;;;6.70;1.30;;;4.40;99.90;;;;;;4994740;28;20139;-71
2022/04/10 07:25:35;;;;;;;13.70;1.88;;;4.70;99.90;;;;;;4994312;28;20046;-71
2022/04/10 07:28:01;;;;;;;5.82;1.48;;;4.80;99.90;;;;;;4994701;28;20031;-71
2022/04/10 07:30:27;;;;;;;5.53;1.40;;;4.80;99.90;;;;;;4994332;28;20049;-71
2022/04/10 07:32:54;;;;;;;5.43;1.88;;;5.00;99.90;;;;;;4994206;28;20038;-71
2022/04/10 07:35:21;;;;;;;7.13;1.58;;;5.20;99.90;;;;;;4994151;28;20057;-71
2022/04/10 07:37:47;;;;;;;5.75;1.50;;;5.20;99.90;;;;;;4994455;28;20402;-71
2022/04/10 07:40:13;;;;;;;9.80;1.60;;;5.30;99.90;;;;;;4977924;28;20038;-71
2022/04/10 07:42:43;;;;;;;6.60;1.52;;;5.40;99.90;;;;;;4977814;28;20513;-71
2022/04/10 07:45:10;;;;;;;9.25;1.83;;;5.60;99.90;;;;;;4994252;28;20426;-71
2022/04/10 07:47:36;;;;;;;7.68;2.17;;;5.70;99.90;;;;;;4978011;28;20091;-71
2022/04/10 07:50:02;;;;;;;8.23;1.70;;;5.80;99.90;;;;;;4994251;28;20042;-71
2022/04/10 07:52:28;;;;;;;9.88;1.50;;;5.90;99.90;;;;;;4994200;28;20046;-71
2022/04/10 07:54:53;;;;;;;12.82;1.80;;;6.00;99.90;;;;;;4994027;28;20034;-71
2022/04/10 07:57:19;;;;;;;8.23;1.77;;;6.10;99.90;;;;;;4993807;28;20049;-71
2022/04/10 07:59:45;;;;;;;6.63;1.88;;;6.20;99.90;;;;;;4977564;28;20043;-71
2022/04/10 08:02:11;;;;;;;10.40;1.73;;;6.40;99.90;;;;;;4993991;28;20034;-71
2022/04/10 08:04:38;;;;;;;9.15;1.52;;;6.40;99.90;;;;;;4993529;28;20638;-71
2022/04/10 08:07:03;;;;;;;5.00;1.27;;;6.50;99.90;;;;;;4993678;28;20043;-71
2022/04/10 08:09:29;;;;;;;7.55;1.50;;;6.40;99.90;;;;;;4993827;28;20499;-71
2022/04/10 08:11:55;;;;;;;6.45;1.40;;;6.50;99.90;;;;;;4993435;28;20049;-71
2022/04/10 08:14:20;;;;;;;6.00;1.42;;;6.60;99.90;;;;;;4993386;28;20077;-71
2022/04/10 08:16:46;;;;;;;5.47;1.20;;;6.70;99.90;;;;;;4993495;28;20108;-71
2022/04/10 08:19:11;;;;;;;5.97;1.25;;;6.70;99.90;;;;;;4994870;28;20073;-71
2022/04/10 08:21:37;;;;;;;6.65;1.40;;;6.80;99.90;;;;;;4993402;28;20045;-71
2022/04/10 08:24:03;;;;;;;9.05;1.50;;;7.00;99.90;;;;;;4993058;28;20077;-71
2022/04/10 08:26:29;;;;;;;6.13;1.13;;;7.00;99.90;;;;;;4993223;28;20046;-71
2022/04/10 08:28:54;;;;;;;9.20;1.60;;;7.00;99.90;;;;;;4993208;28;20557;-71
2022/04/10 08:31:21;;;;;;;10.38;2.00;;;7.10;99.90;;;;;;4993160;28;20046;-71
2022/04/10 08:33:46;;;;;;;8.63;1.48;;;7.30;99.90;;;;;;4977061;28;20045;-71
2022/04/10 08:36:12;;;;;;;5.85;1.42;;;7.40;99.90;;;;;;4993074;28;20042;-71
2022/04/10 08:38:38;;;;;;;8.85;1.65;;;7.60;99.90;;;;;;4976934;28;20156;-71
2022/04/10 08:41:05;;;;;;;9.40;1.65;;;7.60;99.90;;;;;;4976921;28;20614;-71
2022/04/10 08:43:31;;;;;;;10.55;1.58;;;7.60;99.90;;;;;;4976752;28;20117;-71
2022/04/10 08:45:58;;;;;;;10.25;1.85;;;7.60;99.90;;;;;;4992909;28;20125;-71
2022/04/10 08:48:27;;;;;;;11.50;1.88;;;7.50;99.90;;;;;;4992978;28;20054;-71
2022/04/10 08:51:01;;;;;;;8.57;1.77;;;7.50;99.90;;;;;;4992897;28;20053;-71
2022/04/10 08:53:27;;;;;;;7.30;1.35;;;7.60;99.90;;;;;;4992871;28;20082;-71
2022/04/10 08:55:54;;;;;;;9.95;1.90;;;7.80;99.90;;;;;;4976606;28;20084;-71
2022/04/10 08:58:20;;;;;;;6.30;1.40;;;7.90;99.90;;;;;;4976835;28;20497;-71
2022/04/10 09:00:45;;;;;;;11.32;2.28;;;8.10;99.90;;;;;;4976831;28;20035;-71
2022/04/10 09:03:11;;;;;;;9.20;1.75;;;8.20;99.90;;;;;;4976741;28;20038;-71
2022/04/10 09:05:45;;;;;;;6.97;1.50;;;8.10;99.90;;;;;;4976732;28;20059;-71
2022/04/10 09:08:17;;;;;;;7.32;1.67;;;7.90;99.90;;;;;;4976559;28;20034;-72
2022/04/10 09:10:57;;;;;;;5.13;1.70;;;7.70;99.90;;;;;;4992868;28;20372;-73
2022/04/10 09:13:33;;;;;;;10.15;2.00;;;7.80;99.90;;;;;;4992920;28;20117;-72
2022/04/10 09:16:17;;;;;;;7.78;1.95;;;7.90;99.90;;;;;;4992534;28;20048;-72
2022/04/10 09:18:58;;;;;;;7.82;1.40;;;8.10;99.90;;;;;;4992591;28;20049;-72
2022/04/10 09:21:33;;;;;;;6.10;1.40;;;8.40;99.90;;;;;;4976416;28;20147;-72
2022/04/10 09:24:06;;;;;;;6.70;1.10;;;8.50;99.90;;;;;;4992350;28;20560;-72
2022/04/10 09:26:52;;;;;;;11.30;1.50;;;8.60;99.90;;;;;;4980235;28;20038;-72
2022/04/10 09:29:19;;;;;;;6.43;1.15;;;8.70;99.90;;;;;;4996648;28;20073;-73
2022/04/10 09:31:45;;;;;;;9.85;1.92;;;8.90;99.90;;;;;;4996556;28;20124;-72
2022/04/10 09:34:14;;;;;;;7.10;1.52;;;8.80;99.80;;;;;;4996472;28;20053;-72
2022/04/10 09:36:42;;;;;;;8.63;1.52;;;8.70;99.90;;;;;;4980377;28;20050;-72
2022/04/10 09:39:35;;;;;;;6.55;1.35;;;8.70;99.90;;;;;;4996506;28;20042;-72
2022/04/10 09:42:06;;;;;;;5.20;1.23;;;8.80;99.90;;;;;;4979640;28;20480;-72
2022/04/10 09:44:33;;;;;;;3.10;1.00;;;8.80;97.10;;;;;;4996224;28;20074;-72
2022/04/10 09:47:05;;;;;;;4.18;1.08;;;8.70;95.50;;;;;;4996428;28;20120;-72
2022/04/10 09:49:35;;;;;;;2.25;0.80;;;8.70;97.50;;;;;;4980079;28;20044;-72
2022/04/10 09:52:08;;;;;;;4.90;1.13;;;8.80;98.40;;;;;;4980051;28;20073;-72
2022/04/10 09:54:43;;;;;;;5.13;0.70;;;8.80;94.60;;;;;;4979899;28;20042;-72
2022/04/10 09:57:15;;;;;;;5.03;1.00;;;9.00;98.20;;;;;;4995988;28;20552;-72
2022/04/10 09:59:48;;;;;;;6.70;1.40;;;9.00;96.90;;;;;;4996267;28;20414;-72
2022/04/10 10:02:19;;;;;;;4.72;0.95;;;9.10;97.20;;;;;;4996220;28;20074;-72
2022/04/10 10:04:46;;;;;;;3.92;1.10;;;9.10;94.30;;;;;;4979601;28;20046;-72
2022/04/10 10:07:21;;;;;;;6.82;1.23;;;9.20;99.20;;;;;;4995819;28;20128;-72
2022/04/10 10:09:48;;;;;;;7.35;1.40;;;9.40;99.90;;;;;;4979696;28;20512;-72
2022/04/10 10:12:15;;;;;;;7.10;1.10;;;9.50;96.80;;;;;;4995730;28;20126;-72
2022/04/10 10:14:41;;;;;;;7.70;1.45;;;9.20;98.40;;;;;;4979547;28;20042;-72
2022/04/10 10:17:09;;;;;;;9.52;1.65;;;9.00;99.90;;;;;;4995844;28;20125;-72
2022/04/10 10:19:38;;;;;;;6.28;1.23;;;8.90;99.90;;;;;;4995888;28;20120;-72
2022/04/10 10:22:06;;;;;;;7.25;2.08;;;8.70;99.90;;;;;;4995631;28;20081;-72
2022/04/10 10:24:43;;;;;;;6.82;1.50;;;8.90;99.90;;;;;;4995410;28;20050;-72
2022/04/10 10:27:43;;;;;;;7.00;1.40;;;8.90;99.90;;;;;;4995759;28;20042;-72
2022/04/10 10:30:27;;;;;;;6.20;1.10;;;9.00;99.90;;;;;;4979643;28;20082;-72
2022/04/10 10:32:57;;;;;;;8.55;1.40;;;9.10;99.90;;;;;;4979473;28;20050;-72
2022/04/10 10:35:38;;;;;;;9.85;1.80;;;9.20;99.90;;;;;;4995158;28;20042;-72
2022/04/10 10:38:19;;;;;;;6.53;1.65;;;9.50;99.90;;;;;;4995489;28;20050;-73
2022/04/10 10:40:44;;;;;;;7.60;1.40;;;9.50;99.70;;;;;;4995584;28;20398;-72
2022/04/10 10:43:10;;;;;;;7.05;1.55;;;9.50;99.90;;;;;;4995196;28;20042;-73
2022/04/10 10:45:41;;;;;;;8.48;1.30;;;9.40;99.90;;;;;;4995232;28;20130;-72
2022/04/10 10:48:42;;;;;;;7.85;1.52;;;9.50;99.90;;;;;;4995082;28;20052;-72
2022/04/10 10:51:11;;;;;;;7.90;1.35;;;9.70;99.90;;;;;;4995430;28;20069;-72
2022/04/10 10:53:58;;;;;;;8.52;1.52;;;9.90;99.90;;;;;;4978823;28;20042;-72
2022/04/10 10:56:31;;;;;;;6.18;1.95;;;10.10;99.90;;;;;;4995163;28;20395;-73
2022/04/10 10:59:22;;;;;;;9.48;1.70;;;9.90;99.90;;;;;;4978646;28;20049;-73
2022/04/10 11:02:13;;;;;;;10.15;1.77;;;9.60;99.20;;;;;;4995028;28;20046;-73
2022/04/10 11:04:50;;;;;;;7.10;1.50;;;9.50;99.90;;;;;;4994853;28;20124;-73
2022/04/10 11:07:19;;;;;;;8.93;1.63;;;9.60;99.90;;;;;;4994778;28;20082;-73
2022/04/10 11:10:00;;;;;;;7.05;1.40;;;9.70;99.90;;;;;;4994660;28;20034;-73
2022/04/10 11:12:30;;;;;;;10.32;1.50;;;9.90;99.90;;;;;;4978436;28;20550;-73
2022/04/10 11:14:56;;;;;;;8.85;1.80;;;10.10;99.90;;;;;;4994612;28;20085;-73
2022/04/10 11:17:32;;;;;;;5.03;1.15;;;10.20;99.90;;;;;;4978374;28;20050;-73
2022/04/10 11:20:02;;;;;;;8.43;1.30;;;10.40;99.90;;;;;;4994597;28;20073;-73
2022/04/10 11:22:33;;;;;;;7.93;1.60;;;10.50;99.90;;;;;;4995261;28;20510;-72
2022/04/10 11:25:03;;;;;;;8.75;1.98;;;10.50;99.30;;;;;;5014114;28;20506;-73
2022/04/10 11:27:51;;;;;;;5.60;1.42;;;10.50;99.60;;;;;;4997857;28;20052;-73
2022/04/10 11:30:29;;;;;;;8.38;1.88;;;10.10;99.90;;;;;;4997581;28;20034;-73
2022/04/10 11:32:58;;;;;;;8.43;1.77;;;9.60;98.40;;;;;;4997804;28;20045;-73
2022/04/10 11:35:26;;;;;;;6.28;1.20;;;9.50;99.90;;;;;;4981328;28;20133;-73
2022/04/10 11:37:54;;;;;;;6.85;1.63;;;9.40;99.20;;;;;;4981251;28;20046;-72
2022/04/10 11:40:25;;;;;;;7.22;1.30;;;9.20;99.90;;;;;;4981215;28;20096;-72
2022/04/10 11:42:54;;;;;;;5.35;1.17;;;9.20;99.90;;;;;;4997289;28;20069;-72
2022/04/10 11:45:27;;;;;;;7.15;1.73;;;9.50;99.90;;;;;;4981022;28;20038;-73
2022/04/10 11:47:53;;;;;;;6.43;1.45;;;9.70;99.80;;;;;;4996789;28;20037;-73
2022/04/10 11:50:23;;;;;;;7.00;1.30;;;9.80;97.70;;;;;;4981295;28;20044;-73
2022/04/10 11:53:07;;;;;;;9.65;1.42;;;9.70;96.90;;;;;;4981019;28;20034;-73
2022/04/10 11:55:51;;;;;;;7.80;1.50;;;9.80;96.50;;;;;;4999990;28;20037;-73
2022/04/10 11:58:25;;;;;;;7.82;1.60;;;9.90;99.90;;;;;;4980809;28;20471;-73
2022/04/10 12:00:56;;;;;;;6.20;1.45;;;10.20;99.90;;;;;;4981163;28;20045;-73
2022/04/10 12:03:27;;;;;;;7.70;2.47;;;10.30;98.60;;;;;;4980906;28;20446;-73
2022/04/10 12:05:54;;;;;;;10.32;1.65;;;10.30;99.90;;;;;;4996847;28;20048;-73
2022/04/10 12:08:20;;;;;;;7.72;1.63;;;10.50;99.90;;;;;;4996832;28;20129;-73
2022/04/10 12:10:57;;;;;;;9.77;1.73;;;10.50;98.30;;;;;;4996810;28;20072;-73
2022/04/10 12:13:34;;;;;;;5.63;1.40;;;10.60;98.60;;;;;;4997080;28;20037;-73
2022/04/10 12:16:10;;;;;;;7.30;1.17;;;10.70;98.20;;;;;;4996786;28;20055;-73
2022/04/10 12:18:49;;;;;;;6.32;0.90;;;10.80;97.60;;;;;;4996718;28;20041;-73
2022/04/10 12:21:19;;;;;;;8.18;1.73;;;11.00;98.80;;;;;;4996691;28;20038;-73
2022/04/10 12:23:47;;;;;;;6.97;1.30;;;11.10;97.30;;;;;;4996487;28;20401;-73
2022/04/10 12:26:13;;;;;;;6.70;1.30;;;11.10;98.90;;;;;;4996577;28;20081;-73
2022/04/10 12:28:42;;;;;;;6.70;1.10;;;10.90;96.80;;;;;;4996164;28;20037;-73
2022/04/10 12:31:08;;;;;;;5.95;1.25;;;10.60;89.00;;;;;;4996516;28;20069;-73
2022/04/10 12:33:35;;;;;;;8.48;1.15;;;10.50;83.90;;;;;;4996782;28;20064;-73
2022/04/10 12:36:23;;;;;;;6.63;1.25;;;10.30;85.40;;;;;;4996453;28;20033;-73
2022/04/10 12:38:53;;;;;;;7.50;1.23;;;10.40;94.10;;;;;;4996634;28;20042;-73
2022/04/10 12:41:31;;;;;;;4.15;1.15;;;10.60;97.70;;;;;;4996306;28;20091;-73
2022/04/10 12:44:04;;;;;;;5.25;1.10;;;10.40;98.80;;;;;;4996305;28;20073;-73
2022/04/10 12:46:38;;;;;;;4.82;1.00;;;10.20;95.70;;;;;;4996280;28;20508;-73
2022/04/10 12:49:17;;;;;;;4.07;1.00;;;10.20;88.70;;;;;;4996139;28;20083;-73
2022/04/10 12:52:02;;;;;;;5.60;1.27;;;10.10;91.10;;;;;;4996492;28;20441;-73
2022/04/10 12:54:47;;;;;;;3.67;1.13;;;10.20;93.50;;;;;;4995162;28;20046;-73
2022/04/10 12:57:23;;;;;;;6.28;1.10;;;10.40;95.70;;;;;;4979540;28;20092;-73
2022/04/10 12:59:49;;;;;;;4.95;0.88;;;10.50;96.60;;;;;;4995931;28;20056;-73
2022/04/10 13:02:23;;;;;;;5.45;0.88;;;10.90;97.00;;;;;;4995829;28;20121;-73